createdAt,value
2023-04-15T00:00:10.071Z,55.91
2023-04-15T00:02:53.223Z,55.88
2023-04-15T00:05:26.180Z,56.11
2023-04-15T00:07:59.916Z,56.02
2023-04-15T00:10:32.531Z,55.44
2023-04-15T00:13:05.493Z,55.79
2023-04-15T00:15:41.508Z,55.88
2023-04-15T00:18:15.624Z,56.04
2023-04-15T00:20:48.771Z,56.06
2023-04-15T00:23:21.595Z,56.16
2023-04-15T00:25:54.432Z,56.11
2023-04-15T00:28:28.027Z,56.25
2023-04-15T00:31:00.908Z,56.37
2023-04-15T00:33:36.679Z,56.45
2023-04-15T00:36:11.180Z,56.38
2023-04-15T00:38:43.963Z,56.45
2023-04-15T00:41:17.418Z,56.37
2023-04-15T00:43:50.358Z,56.60
2023-04-15T00:46:24.071Z,56.68
2023-04-15T00:48:58.845Z,56.79
2023-04-15T00:51:33.559Z,56.83
2023-04-15T00:54:07.827Z,56.84
2023-04-15T00:56:40.979Z,56.87
2023-04-15T00:59:15.115Z,56.91
2023-04-15T01:01:48.512Z,56.99
2023-04-15T01:04:23.074Z,57.07
2023-04-15T01:06:56.140Z,57.23
2023-04-15T01:09:28.934Z,57.28
2023-04-15T01:12:02.613Z,57.33
2023-04-15T01:14:36.188Z,57.37
2023-04-15T01:17:09.808Z,57.53
2023-04-15T01:19:44.230Z,57.71
2023-04-15T01:22:17.313Z,57.91
2023-04-15T01:24:58.637Z,58.02
2023-04-15T01:27:33.627Z,58.18
2023-04-15T01:30:07.987Z,58.25
2023-04-15T01:32:40.873Z,58.43
2023-04-15T01:35:13.758Z,58.54
2023-04-15T01:37:47.432Z,58.66
2023-04-15T01:40:23.068Z,58.68
2023-04-15T01:42:57.227Z,58.97
2023-04-15T01:45:30.103Z,59.13
2023-04-15T01:48:02.957Z,59.34
2023-04-15T01:50:36.884Z,59.41
2023-04-15T01:53:09.759Z,59.74
2023-04-15T01:55:42.566Z,59.72
2023-04-15T01:58:17.216Z,59.97
2023-04-15T02:00:50.066Z,60.10
2023-04-15T02:03:23.323Z,60.14
2023-04-15T02:05:58.722Z,60.49
2023-04-15T02:08:31.800Z,60.72
2023-04-15T02:11:04.653Z,60.89
2023-04-15T02:13:39.734Z,61.28
2023-04-15T02:16:19.640Z,61.79
2023-04-15T02:18:52.860Z,61.99
2023-04-15T02:21:27.485Z,62.12
2023-04-15T02:24:00.654Z,62.47
2023-04-15T02:26:33.595Z,62.49
2023-04-15T02:29:07.845Z,62.86
2023-04-15T02:31:42.270Z,63.07
2023-04-15T02:34:15.284Z,63.33
2023-04-15T02:36:54.987Z,63.45
2023-04-15T02:39:28.118Z,63.61
2023-04-15T02:42:01.113Z,63.71
2023-04-15T02:44:36.569Z,63.97
2023-04-15T02:47:11.765Z,64.08
2023-04-15T02:49:44.388Z,63.06
2023-04-15T02:52:17.229Z,63.83
2023-04-15T02:54:50.107Z,64.15
2023-04-15T02:57:22.984Z,64.41
2023-04-15T02:59:57.136Z,64.49
2023-04-15T03:02:35.265Z,64.83
2023-04-15T03:05:12.654Z,64.89
2023-04-15T03:07:48.045Z,64.96
2023-04-15T03:10:21.605Z,65.06
2023-04-15T03:12:54.454Z,64.96
2023-04-15T03:15:30.838Z,65.27
2023-04-15T03:18:03.711Z,65.35
2023-04-15T03:20:37.309Z,65.32
2023-04-15T03:23:10.184Z,65.46
2023-04-15T03:25:43.402Z,65.51
2023-04-15T03:28:16.286Z,65.60
2023-04-15T03:30:50.752Z,65.63
2023-04-15T03:33:23.716Z,65.61
2023-04-15T03:35:56.645Z,65.68
2023-04-15T03:38:30.037Z,65.74
2023-04-15T03:41:02.891Z,65.86
2023-04-15T03:43:35.808Z,65.88
2023-04-15T03:46:10.089Z,66.09
2023-04-15T03:48:42.930Z,66.18
2023-04-15T03:51:15.806Z,66.16
2023-04-15T03:53:48.678Z,66.28
2023-04-15T03:56:21.447Z,66.39
2023-04-15T03:58:54.283Z,66.58
2023-04-15T04:01:28.453Z,66.39
2023-04-15T04:04:01.409Z,66.74
2023-04-15T04:06:34.773Z,66.81
2023-04-15T04:09:08.752Z,66.89
2023-04-15T04:11:41.527Z,67.03
2023-04-15T04:14:14.296Z,67.08
2023-04-15T04:16:48.492Z,67.23
2023-04-15T04:19:21.409Z,67.27
2023-04-15T04:21:54.330Z,67.17
2023-04-15T04:24:27.219Z,67.38
2023-04-15T04:27:00.159Z,67.50
2023-04-15T04:29:33.222Z,67.58
2023-04-15T04:32:08.464Z,67.78
2023-04-15T04:34:41.565Z,67.84
2023-04-15T04:37:14.545Z,67.78
2023-04-15T04:39:47.365Z,67.78
2023-04-15T04:42:20.402Z,67.63
2023-04-15T04:44:53.624Z,68.10
2023-04-15T04:47:27.830Z,67.87
2023-04-15T04:50:00.686Z,68.06
2023-04-15T04:52:33.647Z,68.11
2023-04-15T04:55:08.617Z,68.25
2023-04-15T04:57:41.570Z,68.26
2023-04-15T05:00:14.979Z,68.10
2023-04-15T05:02:49.343Z,68.18
2023-04-15T05:05:22.409Z,68.20
2023-04-15T05:07:55.230Z,68.10
2023-04-15T05:10:28.043Z,68.15
2023-04-15T05:13:00.982Z,68.21
2023-04-15T05:15:35.031Z,68.14
2023-04-15T05:18:09.355Z,68.35
2023-04-15T05:20:42.266Z,68.24
2023-04-15T05:23:15.260Z,68.10
2023-04-15T05:25:50.260Z,68.17
2023-04-15T05:28:23.053Z,68.38
2023-04-15T05:30:56.337Z,68.34
2023-04-15T05:33:33.944Z,68.33
2023-04-15T05:36:07.384Z,68.36
2023-04-15T05:38:40.264Z,68.29
2023-04-15T05:41:16.590Z,68.29
2023-04-15T05:43:51.302Z,68.37
2023-04-15T05:46:24.301Z,68.54
2023-04-15T05:48:58.605Z,68.39
2023-04-15T05:51:31.558Z,68.40
2023-04-15T05:54:04.493Z,68.34
2023-04-15T05:56:37.389Z,68.47
2023-04-15T05:59:10.261Z,68.25
2023-04-15T06:01:43.188Z,68.29
2023-04-15T06:04:17.676Z,68.42
2023-04-15T06:06:50.901Z,68.49
2023-04-15T06:09:23.743Z,68.32
2023-04-15T06:11:57.055Z,68.36
2023-04-15T06:14:30.031Z,68.40
2023-04-15T06:17:02.843Z,68.27
2023-04-15T06:19:37.285Z,68.26
2023-04-15T06:22:10.231Z,68.34
2023-04-15T06:24:43.116Z,68.29
2023-04-15T06:27:16.147Z,68.26
2023-04-15T06:29:49.701Z,68.41
2023-04-15T06:32:23.848Z,68.57
2023-04-15T06:34:58.209Z,68.43
2023-04-15T06:37:31.452Z,68.64
2023-04-15T06:40:05.209Z,68.69
2023-04-15T06:42:38.389Z,68.76
2023-04-15T06:45:12.425Z,68.68
2023-04-15T06:47:45.355Z,68.70
2023-04-15T06:50:19.717Z,68.90
2023-04-15T06:52:52.589Z,68.88
2023-04-15T06:55:25.409Z,69.11
2023-04-15T06:57:58.258Z,68.96
2023-04-15T07:00:31.292Z,68.89
2023-04-15T07:03:04.357Z,68.90
2023-04-15T07:05:38.565Z,68.90
2023-04-15T07:08:11.566Z,68.92
2023-04-15T07:10:44.417Z,68.86
2023-04-15T07:13:17.572Z,69.05
2023-04-15T07:15:50.505Z,69.00
2023-04-15T07:18:23.537Z,68.82
2023-04-15T07:20:57.925Z,68.99
2023-04-15T07:23:31.470Z,68.99
2023-04-15T07:26:04.623Z,68.94
2023-04-15T07:28:37.436Z,68.86
2023-04-15T07:31:13.891Z,69.08
2023-04-15T07:33:49.418Z,69.06
2023-04-15T07:36:23.560Z,69.20
2023-04-15T07:38:56.441Z,69.16
2023-04-15T07:41:29.406Z,69.01
2023-04-15T07:44:02.594Z,68.97
2023-04-15T07:46:35.539Z,69.04
2023-04-15T07:49:08.706Z,68.94
2023-04-15T07:51:43.152Z,69.10
2023-04-15T07:54:16.305Z,69.09
2023-04-15T07:56:49.204Z,68.92
2023-04-15T07:59:22.664Z,69.12
2023-04-15T08:01:55.646Z,69.28
2023-04-15T08:04:28.747Z,69.13
2023-04-15T08:07:06.187Z,69.17
2023-04-15T08:09:39.178Z,69.29
2023-04-15T08:12:13.550Z,69.16
2023-04-15T08:14:49.627Z,69.22
2023-04-15T08:17:22.529Z,69.29
2023-04-15T08:19:55.591Z,69.07
2023-04-15T08:22:29.806Z,69.04
2023-04-15T08:25:03.900Z,69.02
2023-04-15T08:27:36.750Z,69.10
2023-04-15T08:30:10.721Z,69.15
2023-04-15T08:32:43.923Z,69.02
2023-04-15T08:35:16.905Z,68.85
2023-04-15T08:37:51.107Z,68.78
2023-04-15T08:40:29.345Z,68.86
2023-04-15T08:43:04.571Z,68.72
2023-04-15T08:45:40.351Z,68.60
2023-04-15T08:48:17.487Z,68.71
2023-04-15T08:50:50.436Z,68.68
2023-04-15T08:53:25.643Z,68.61
2023-04-15T08:55:59.545Z,68.58
2023-04-15T08:58:32.879Z,68.63
2023-04-15T09:01:08.264Z,68.72
2023-04-15T09:03:41.528Z,68.75
2023-04-15T09:06:14.903Z,68.69
2023-04-15T09:08:49.188Z,68.73
2023-04-15T09:11:23.360Z,68.73
2023-04-15T09:13:57.545Z,68.55
2023-04-15T09:16:30.746Z,68.42
2023-04-15T09:19:22.833Z,68.45
2023-04-15T09:21:59.683Z,68.37
2023-04-15T09:24:39.607Z,68.63
2023-04-15T09:27:12.495Z,68.42
2023-04-15T09:29:45.359Z,68.27
2023-04-15T09:32:18.275Z,68.52
2023-04-15T09:34:51.142Z,68.56
2023-04-15T09:37:36.711Z,68.66
2023-04-15T09:40:12.430Z,68.85
2023-04-15T09:42:57.844Z,68.80
2023-04-15T09:45:31.058Z,68.73
2023-04-15T09:48:17.992Z,68.89
2023-04-15T09:50:53.656Z,68.82
2023-04-15T09:53:28.421Z,68.79
2023-04-15T09:56:04.366Z,68.90
2023-04-15T09:58:38.791Z,68.76
2023-04-15T10:01:11.869Z,68.94
2023-04-15T10:03:46.677Z,68.80
2023-04-15T10:06:19.735Z,68.72
2023-04-15T10:08:52.681Z,68.69
2023-04-15T10:11:31.581Z,68.52
2023-04-15T10:14:05.370Z,68.35
2023-04-15T10:16:42.716Z,68.46
2023-04-15T10:19:20.063Z,68.22
2023-04-15T10:21:53.593Z,68.41
2023-04-15T10:24:27.118Z,68.20
2023-04-15T10:27:02.389Z,68.19
2023-04-15T10:29:35.720Z,68.00
2023-04-15T10:32:09.193Z,67.99
2023-04-15T10:34:42.991Z,68.01
2023-04-15T10:37:22.022Z,67.91
2023-04-15T10:39:54.846Z,67.83
2023-04-15T10:42:35.929Z,67.97
2023-04-15T10:45:18.320Z,67.79
2023-04-15T10:47:56.886Z,67.69
2023-04-15T10:50:32.661Z,67.72
2023-04-15T10:53:06.118Z,67.42
2023-04-15T10:55:39.178Z,67.47
2023-04-15T10:58:15.088Z,67.21
2023-04-15T11:00:53.309Z,67.21
2023-04-15T11:03:39.157Z,67.19
2023-04-15T11:06:12.674Z,67.00
2023-04-15T11:09:00.015Z,66.67
2023-04-15T11:12:12.168Z,66.20
2023-04-15T11:14:50.227Z,66.24
2023-04-15T11:17:34.336Z,66.04
2023-04-15T11:20:09.720Z,66.11
2023-04-15T11:22:48.771Z,66.25
2023-04-15T11:25:27.622Z,66.16
2023-04-15T11:28:02.169Z,66.27
2023-04-15T11:30:40.185Z,65.80
2023-04-15T11:33:14.073Z,65.60
2023-04-15T11:35:49.013Z,65.35
2023-04-15T11:38:22.664Z,64.96
2023-04-15T11:40:55.667Z,64.77
2023-04-15T11:43:28.544Z,64.19
2023-04-15T11:46:05.734Z,63.85
2023-04-15T11:48:46.478Z,63.44
2023-04-15T11:51:22.754Z,62.49
2023-04-15T11:53:57.657Z,61.79
2023-04-15T11:56:34.779Z,61.58
2023-04-15T11:59:11.901Z,61.37
2023-04-15T12:01:47.716Z,60.43
2023-04-15T12:04:25.209Z,60.53
2023-04-15T12:07:06.594Z,60.51
2023-04-15T12:09:41.290Z,60.05
2023-04-15T12:12:14.134Z,60.02
2023-04-15T12:14:47.456Z,59.76
2023-04-15T12:17:25.074Z,59.92
2023-04-15T12:20:00.725Z,60.04
2023-04-15T12:22:39.270Z,60.05
2023-04-15T12:25:16.418Z,60.00
2023-04-15T12:27:53.517Z,60.15
2023-04-15T12:30:29.536Z,60.40
2023-04-15T12:33:05.086Z,60.89
2023-04-15T12:35:37.988Z,60.45
2023-04-15T12:38:11.115Z,60.50
2023-04-15T12:40:43.906Z,60.25
2023-04-15T12:43:16.721Z,59.94
2023-04-15T12:45:49.583Z,59.48
2023-04-15T12:48:23.878Z,58.95
2023-04-15T12:50:56.782Z,58.33
2023-04-15T12:53:30.070Z,57.36
2023-04-15T12:56:02.957Z,56.43
2023-04-15T12:58:36.098Z,56.17
2023-04-15T13:01:10.240Z,55.52
2023-04-15T13:03:44.598Z,55.03
2023-04-15T13:06:20.118Z,54.93
2023-04-15T13:08:58.315Z,54.95
2023-04-15T13:11:33.785Z,54.55
2023-04-15T13:14:08.496Z,54.56
2023-04-15T13:16:41.847Z,54.34
2023-04-15T13:19:16.074Z,53.80
2023-04-15T13:21:48.927Z,53.78
2023-04-15T13:24:22.871Z,53.76
2023-04-15T13:26:57.232Z,53.72
2023-04-15T13:29:30.162Z,53.33
2023-04-15T13:32:03.267Z,53.73
2023-04-15T13:34:37.562Z,53.24
2023-04-15T13:37:10.872Z,53.59
2023-04-15T13:39:43.837Z,53.56
2023-04-15T13:42:16.662Z,54.38
2023-04-15T13:44:50.981Z,54.01
2023-04-15T13:47:23.915Z,54.04
2023-04-15T13:49:58.710Z,53.96
2023-04-15T13:52:31.538Z,54.28
2023-04-15T13:55:18.291Z,54.24
2023-04-15T13:57:52.649Z,53.79
2023-04-15T14:00:25.576Z,53.25
2023-04-15T14:02:58.532Z,52.80
2023-04-15T14:05:34.342Z,52.31
2023-04-15T14:08:07.199Z,51.86
2023-04-15T14:10:40.091Z,51.21
2023-04-15T14:13:12.955Z,50.89
2023-04-15T14:15:46.042Z,50.65
2023-04-15T14:18:19.036Z,50.58
2023-04-15T14:20:53.387Z,50.48
2023-04-15T14:23:26.296Z,50.50
2023-04-15T14:25:59.468Z,50.57
2023-04-15T14:28:32.834Z,50.67
2023-04-15T14:31:05.943Z,50.84
2023-04-15T14:33:38.964Z,50.75
2023-04-15T14:36:13.156Z,50.78
2023-04-15T14:38:48.423Z,50.85
2023-04-15T14:41:22.403Z,50.81
2023-04-15T14:43:55.247Z,51.30
2023-04-15T14:46:28.209Z,51.56
2023-04-15T14:49:01.165Z,51.30
2023-04-15T14:51:35.660Z,50.93
2023-04-15T14:54:08.506Z,50.78
2023-04-15T14:56:41.497Z,50.66
2023-04-15T14:59:14.366Z,50.95
2023-04-15T15:01:47.351Z,50.45
2023-04-15T15:04:20.717Z,50.12
2023-04-15T15:06:55.061Z,50.13
2023-04-15T15:09:28.045Z,50.19
2023-04-15T15:12:01.904Z,50.20
2023-04-15T15:14:34.787Z,49.91
2023-04-15T15:17:07.678Z,49.74
2023-04-15T15:19:40.554Z,50.07
2023-04-15T15:22:14.873Z,50.09
2023-04-15T15:24:47.717Z,50.84
2023-04-15T15:27:20.635Z,50.32
2023-04-15T15:29:53.471Z,50.38
2023-04-15T15:32:26.556Z,50.27
2023-04-15T15:34:59.412Z,50.08
2023-04-15T15:37:34.106Z,50.07
2023-04-15T15:40:08.453Z,50.10
2023-04-15T15:42:42.687Z,50.21
2023-04-15T15:45:15.678Z,50.42
2023-04-15T15:47:49.177Z,50.33
2023-04-15T15:50:22.233Z,50.76
2023-04-15T15:52:56.385Z,50.55
2023-04-15T15:55:30.567Z,50.55
2023-04-15T15:58:03.491Z,50.16
2023-04-15T16:00:36.766Z,50.35
2023-04-15T16:03:11.989Z,50.36
2023-04-15T16:05:47.078Z,50.21
2023-04-15T16:08:21.372Z,50.50
2023-04-15T16:10:54.362Z,50.31
2023-04-15T16:13:27.226Z,50.50
2023-04-15T16:16:00.206Z,50.55
2023-04-15T16:18:35.189Z,51.10
2023-04-15T16:21:08.218Z,51.08
2023-04-15T16:23:44.883Z,51.33
2023-04-15T16:26:20.259Z,51.69
2023-04-15T16:28:53.050Z,51.99
2023-04-15T16:31:25.940Z,52.11
2023-04-15T16:33:59.041Z,52.48
2023-04-15T16:36:32.504Z,52.62
2023-04-15T16:39:07.201Z,53.12
2023-04-15T16:41:40.263Z,53.43
2023-04-15T16:44:13.472Z,53.42
2023-04-15T16:46:46.391Z,53.92
2023-04-15T16:49:19.288Z,54.30
2023-04-15T16:51:54.088Z,54.39
2023-04-15T16:54:33.817Z,54.87
2023-04-15T16:57:09.157Z,55.14
2023-04-15T16:59:42.345Z,55.24
2023-04-15T17:02:15.712Z,55.38
2023-04-15T17:04:48.714Z,55.65
2023-04-15T17:07:22.132Z,55.75
2023-04-15T17:09:57.820Z,56.00
2023-04-15T17:12:31.813Z,56.38
2023-04-15T17:15:07.441Z,56.56
2023-04-15T17:17:41.720Z,56.67
2023-04-15T17:20:14.821Z,56.94
2023-04-15T17:22:49.091Z,57.27
2023-04-15T17:25:24.248Z,57.51
2023-04-15T17:27:57.269Z,57.57
2023-04-15T17:30:30.438Z,58.27
2023-04-15T17:33:03.490Z,57.93
2023-04-15T17:35:56.256Z,58.13
2023-04-15T17:38:29.180Z,58.15
2023-04-15T17:41:03.594Z,58.38
2023-04-15T17:43:36.724Z,58.56
2023-04-15T17:46:10.337Z,58.73
2023-04-15T17:48:43.264Z,58.69
2023-04-15T17:51:17.115Z,58.90
2023-04-15T17:53:50.268Z,59.13
2023-04-15T17:56:25.144Z,59.31
2023-04-15T17:59:00.800Z,59.45
2023-04-15T18:01:39.306Z,59.76
2023-04-15T18:04:25.693Z,59.72
2023-04-15T18:07:00.127Z,59.97
2023-04-15T18:09:41.537Z,59.99
2023-04-15T18:12:16.114Z,60.30
2023-04-15T18:14:50.945Z,60.32
2023-04-15T18:17:24.152Z,60.30
2023-04-15T18:19:57.306Z,60.42
2023-04-15T18:22:30.165Z,60.53
2023-04-15T18:25:04.290Z,60.70
2023-04-15T18:27:40.068Z,60.63
2023-04-15T18:30:13.935Z,60.92
2023-04-15T18:32:46.814Z,61.00
2023-04-15T18:35:20.684Z,60.91
2023-04-15T18:37:54.060Z,61.15
2023-04-15T18:40:27.050Z,61.09
2023-04-15T18:43:01.402Z,61.36
2023-04-15T18:48:32.926Z,61.39
2023-04-15T18:51:05.894Z,61.43
2023-04-15T18:53:38.940Z,61.70
2023-04-15T18:56:11.903Z,61.66
2023-04-15T18:59:27.516Z,61.79
2023-04-15T19:01:39.275Z,61.86
2023-04-15T19:04:12.377Z,61.90
2023-04-15T19:06:45.417Z,62.13
2023-04-15T19:09:18.846Z,62.23
2023-04-15T19:11:51.992Z,62.43
2023-04-15T19:14:28.061Z,62.45
2023-04-15T19:17:01.216Z,62.59
2023-04-15T19:19:36.697Z,62.76
2023-04-15T19:22:10.240Z,62.82
2023-04-15T19:24:45.271Z,62.29
2023-04-15T19:27:19.946Z,62.68
2023-04-15T19:29:55.922Z,62.80
2023-04-15T19:32:28.889Z,62.69
2023-04-15T19:35:01.775Z,62.74
2023-04-15T19:37:34.633Z,62.71
2023-04-15T19:40:08.689Z,62.77
2023-04-15T19:42:42.935Z,62.41
2023-04-15T19:45:17.414Z,62.14
2023-04-15T19:47:52.961Z,62.03
2023-04-15T19:50:27.755Z,61.84
2023-04-15T19:53:00.992Z,61.97
2023-04-15T19:55:33.875Z,61.75
2023-04-15T19:58:06.785Z,61.78
2023-04-15T20:00:41.176Z,61.83
2023-04-15T20:03:14.155Z,61.76
2023-04-15T20:05:47.240Z,61.87
2023-04-15T20:08:23.405Z,61.84
2023-04-15T20:10:56.250Z,61.77
2023-04-15T20:13:29.141Z,61.93
2023-04-15T20:16:03.471Z,62.00
2023-04-15T20:18:36.490Z,62.02
2023-04-15T20:21:09.730Z,62.20
2023-04-15T20:23:46.789Z,62.25
2023-04-15T20:26:20.686Z,62.54
2023-04-15T20:28:55.827Z,62.49
2023-04-15T20:31:33.298Z,62.76
2023-04-15T20:34:12.010Z,62.44
2023-04-15T20:36:45.110Z,62.65
2023-04-15T20:39:17.949Z,62.75
2023-04-15T20:41:51.101Z,62.86
2023-04-15T20:44:23.920Z,62.94
2023-04-15T20:46:59.624Z,63.07
2023-04-15T20:49:34.804Z,63.23
2023-04-15T20:52:09.344Z,63.15
2023-04-15T20:54:42.185Z,63.00
2023-04-15T20:57:15.100Z,63.20
2023-04-15T20:59:48.054Z,63.17
2023-04-15T21:02:23.411Z,63.21
2023-04-15T21:04:56.294Z,63.31
2023-04-15T21:07:29.106Z,63.31
2023-04-15T21:10:02.105Z,63.38
2023-04-15T21:12:34.981Z,63.45
2023-04-15T21:15:08.741Z,63.44
2023-04-15T21:17:42.724Z,62.86
2023-04-15T21:20:15.588Z,63.15
2023-04-15T21:22:48.350Z,63.42
2023-04-15T21:25:21.336Z,63.55
2023-04-15T21:27:54.092Z,63.60
2023-04-15T21:30:26.880Z,63.75
2023-04-15T21:33:01.275Z,63.73
2023-04-15T21:35:34.336Z,63.91
2023-04-15T21:38:07.461Z,64.04
2023-04-15T21:40:40.782Z,63.91
2023-04-15T21:43:15.735Z,64.20
2023-04-15T21:46:21.016Z,64.22
2023-04-15T21:48:44.526Z,64.33
2023-04-15T21:51:17.368Z,64.46
2023-04-15T21:53:52.732Z,64.51
2023-04-15T21:56:26.081Z,64.74
2023-04-15T21:58:58.988Z,64.67
2023-04-15T22:01:31.905Z,64.90
2023-04-15T22:04:31.459Z,64.89
2023-04-15T22:07:04.539Z,64.96
2023-04-15T22:09:37.365Z,64.87
2023-04-15T22:12:10.570Z,64.94
2023-04-15T22:14:43.348Z,64.96
2023-04-15T22:17:16.359Z,64.86
2023-04-15T22:19:50.563Z,65.11
2023-04-15T22:22:26.709Z,65.04
2023-04-15T22:25:10.938Z,64.99
2023-04-15T22:27:43.721Z,65.00
2023-04-15T22:30:16.531Z,65.04
2023-04-15T22:32:49.425Z,65.04
2023-04-15T22:35:23.665Z,65.18
2023-04-15T22:37:56.438Z,65.21
2023-04-15T22:40:29.555Z,65.24
2023-04-15T22:43:02.352Z,65.19
2023-04-15T22:45:35.209Z,65.21
2023-04-15T22:48:08.068Z,65.20
2023-04-15T22:50:43.094Z,65.29
2023-04-15T22:53:17.265Z,65.51
2023-04-15T22:55:50.427Z,65.47
2023-04-15T22:58:23.413Z,65.42
2023-04-15T23:00:56.234Z,65.35
2023-04-15T23:03:29.257Z,65.44
2023-04-15T23:06:03.542Z,65.60
2023-04-15T23:08:36.337Z,65.53
2023-04-15T23:11:09.214Z,65.39
2023-04-15T23:13:42.041Z,65.56
2023-04-15T23:16:14.847Z,65.68
2023-04-15T23:18:47.690Z,65.62
2023-04-15T23:21:22.856Z,65.79
2023-04-15T23:23:56.993Z,65.91
2023-04-15T23:26:29.788Z,65.95
2023-04-15T23:29:02.733Z,65.81
2023-04-15T23:31:35.801Z,65.90
2023-04-15T23:34:08.631Z,65.98
2023-04-15T23:36:42.809Z,66.18
2023-04-15T23:39:15.815Z,66.17
2023-04-15T23:41:49.064Z,66.25
2023-04-15T23:44:22.337Z,66.34
2023-04-15T23:46:55.203Z,66.34
2023-04-15T23:49:28.010Z,66.32
2023-04-15T23:52:02.253Z,66.53
2023-04-15T23:54:35.121Z,66.46
2023-04-15T23:57:07.946Z,66.47
2023-04-15T23:59:40.711Z,66.29
